createdAt,value
2019-05-11T03:42:58.286Z,6.86
2019-05-11T03:44:41.329Z,6.86
2019-05-11T03:46:17.933Z,6.86
2019-05-11T03:47:53.656Z,6.83
2019-05-11T03:49:29.002Z,6.84
2019-05-11T03:51:06.397Z,6.90
2019-05-11T03:52:41.825Z,6.89
2019-05-11T03:54:19.169Z,6.90
2019-05-11T03:55:54.727Z,6.93
2019-05-11T03:57:30.436Z,6.97
2019-05-11T03:59:05.785Z,6.94
2019-05-11T04:00:41.131Z,6.96
2019-05-11T04:02:16.435Z,6.94
2019-05-11T04:03:51.720Z,6.99
2019-05-11T04:05:27.060Z,6.98
2019-05-11T04:07:02.356Z,6.97
2019-05-11T04:08:37.954Z,7.05
2019-05-11T04:10:14.462Z,7.01
2019-05-11T04:11:50.731Z,7.02
2019-05-11T04:13:28.953Z,7.09
2019-05-11T04:15:07.811Z,7.11
2019-05-11T04:16:43.036Z,7.09
2019-05-11T04:18:18.224Z,7.12
2019-05-11T04:19:54.569Z,7.10
2019-05-11T04:21:30.673Z,7.11
2019-05-11T04:23:06.250Z,7.13
2019-05-11T04:24:42.055Z,7.15
2019-05-11T04:26:17.773Z,7.17
2019-05-11T04:27:53.325Z,7.17
2019-05-11T04:29:31.333Z,7.17
2019-05-11T04:31:07.168Z,7.13
2019-05-11T04:32:42.701Z,7.11
2019-05-11T04:34:18.095Z,7.10
2019-05-11T04:35:53.805Z,7.06
2019-05-11T04:37:29.123Z,7.01
2019-05-11T04:39:08.010Z,7.02
2019-05-11T04:40:43.738Z,6.99
2019-05-11T04:42:20.772Z,7.00
2019-05-11T04:43:56.413Z,7.00
2019-05-11T04:45:36.615Z,7.02
2019-05-11T04:47:13.422Z,7.02
2019-05-11T04:48:51.129Z,7.01
2019-05-11T04:50:26.665Z,6.99
2019-05-11T04:52:02.414Z,7.01
2019-05-11T04:53:37.640Z,6.97
2019-05-11T04:55:13.743Z,6.96
2019-05-11T04:56:49.183Z,6.92
2019-05-11T04:58:25.562Z,6.97
2019-05-11T05:00:01.776Z,6.95
2019-05-11T05:01:37.119Z,7.01
2019-05-11T05:03:12.181Z,7.01
2019-05-11T05:04:47.438Z,7.00
2019-05-11T05:06:24.717Z,7.04
2019-05-11T05:08:09.329Z,7.09
2019-05-11T05:09:42.836Z,7.08
2019-05-11T05:11:14.713Z,7.08
2019-05-11T05:12:52.978Z,7.12
2019-05-11T05:14:28.183Z,7.13
2019-05-11T05:16:12.245Z,7.11
2019-05-11T05:17:50.059Z,7.13
2019-05-11T05:19:25.235Z,7.18
2019-05-11T05:21:01.418Z,7.16
2019-05-11T05:22:36.865Z,7.12
2019-05-11T05:24:14.644Z,7.15
2019-05-11T05:25:50.124Z,7.11
2019-05-11T05:27:32.878Z,7.11
2019-05-11T05:29:09.698Z,7.13
2019-05-11T05:30:45.912Z,7.12
2019-05-11T05:32:21.922Z,7.14
2019-05-11T05:34:01.398Z,7.12
2019-05-11T05:35:36.249Z,7.11
2019-05-11T05:37:14.913Z,7.09
2019-05-11T05:38:50.073Z,7.09
2019-05-11T05:40:25.853Z,7.16
2019-05-11T05:42:01.387Z,7.14
2019-05-11T05:43:36.663Z,7.16
2019-05-11T05:45:13.542Z,7.07
2019-05-11T05:46:59.350Z,7.10
2019-05-11T05:48:40.207Z,7.09
2019-05-11T05:50:19.774Z,7.13
2019-05-11T05:51:58.382Z,7.17
2019-05-11T05:53:37.512Z,7.18
2019-05-11T05:55:13.676Z,7.19
2019-05-11T05:56:49.633Z,7.16
2019-05-11T05:58:25.540Z,7.06
2019-05-11T06:00:00.839Z,7.06
2019-05-11T06:01:37.985Z,7.05
2019-05-11T06:03:16.998Z,7.06
2019-05-11T06:04:54.498Z,6.98
2019-05-11T06:06:32.220Z,7.05
2019-05-11T06:08:10.203Z,7.04
2019-05-11T06:09:49.605Z,7.03
2019-05-11T06:11:25.040Z,7.06
2019-05-11T06:13:08.216Z,7.01
2019-05-11T06:14:43.926Z,7.05
2019-05-11T06:16:19.419Z,7.04
2019-05-11T06:17:54.714Z,7.06
2019-05-11T06:19:31.061Z,7.02
2019-05-11T06:21:07.693Z,7.00
2019-05-11T06:22:43.120Z,7.00
2019-05-11T06:24:26.257Z,7.07
2019-05-11T06:26:05.330Z,7.13
2019-05-11T06:27:43.261Z,7.04
2019-05-11T06:29:21.610Z,7.13
2019-05-11T06:30:57.685Z,7.05
2019-05-11T06:32:37.472Z,7.10
2019-05-11T06:34:14.245Z,7.07
2019-05-11T06:35:49.455Z,7.04
2019-05-11T06:37:24.606Z,7.09
2019-05-11T06:39:00.461Z,7.10
2019-05-11T06:40:35.979Z,7.11
2019-05-11T06:42:11.937Z,7.11
2019-05-11T06:44:01.178Z,7.14
2019-05-11T06:45:33.399Z,7.08
2019-05-11T06:47:09.193Z,7.06
2019-05-11T06:48:44.879Z,7.10
2019-05-11T06:50:20.523Z,7.07
2019-05-11T06:51:57.624Z,7.11
2019-05-11T06:53:32.762Z,7.11
2019-05-11T06:55:08.147Z,7.13
2019-05-11T06:56:43.195Z,7.12
2019-05-11T06:58:18.910Z,7.11
2019-05-11T06:59:54.088Z,7.15
2019-05-11T07:01:29.353Z,7.09
2019-05-11T07:03:11.146Z,7.16
2019-05-11T07:04:46.417Z,7.14
2019-05-11T07:06:28.244Z,7.22
2019-05-11T07:08:02.593Z,7.18
2019-05-11T07:09:40.593Z,7.22
2019-05-11T07:11:16.384Z,7.19
2019-05-11T07:12:52.003Z,7.25
2019-05-11T07:14:27.751Z,7.23
2019-05-11T07:16:04.407Z,7.24
2019-05-11T07:17:43.143Z,7.29
2019-05-11T07:19:21.079Z,7.26
2019-05-11T07:20:56.597Z,7.33
2019-05-11T07:22:31.679Z,7.32
2019-05-11T07:24:07.807Z,7.37
2019-05-11T07:25:43.089Z,7.34
2019-05-11T07:27:18.921Z,7.38
2019-05-11T07:28:54.299Z,7.37
2019-05-11T07:30:37.007Z,7.42
2019-05-11T07:32:24.800Z,7.36
2019-05-11T07:33:53.179Z,7.44
2019-05-11T07:35:28.714Z,7.48
2019-05-11T07:37:05.023Z,7.55
2019-05-11T07:38:40.239Z,7.41
2019-05-11T07:40:18.818Z,7.48
2019-05-11T07:41:58.298Z,7.50
2019-05-11T07:43:32.929Z,7.51
2019-05-11T07:45:09.103Z,7.45
2019-05-11T07:46:44.973Z,7.48
2019-05-11T07:48:20.574Z,7.44
2019-05-11T07:49:57.888Z,7.45
2019-05-11T07:51:33.712Z,7.48
2019-05-11T07:53:11.351Z,7.51
2019-05-11T07:55:08.283Z,7.48
2019-05-11T07:56:47.910Z,7.52
2019-05-11T07:58:23.803Z,7.46
2019-05-11T08:00:07.973Z,7.35
2019-05-11T08:01:42.482Z,7.60
2019-05-11T08:03:19.281Z,7.66
2019-05-11T08:04:54.700Z,7.45
2019-05-11T08:06:30.308Z,7.45
2019-05-11T08:08:14.698Z,7.58
2019-05-11T08:09:59.070Z,7.50
2019-05-11T08:11:38.824Z,7.58
2019-05-11T08:13:21.321Z,7.51
2019-05-11T08:15:08.087Z,7.46
2019-05-11T08:16:39.385Z,7.38
2019-05-11T08:18:21.087Z,7.41
2019-05-11T08:20:00.278Z,7.34
2019-05-11T08:21:41.405Z,7.42
2019-05-11T08:23:21.112Z,7.41
2019-05-11T08:24:58.433Z,7.43
2019-05-11T08:26:34.817Z,7.48
2019-05-11T08:28:12.103Z,7.45
2019-05-11T08:29:48.820Z,7.44
2019-05-11T08:31:24.483Z,7.57
2019-05-11T08:33:00.125Z,7.65
2019-05-11T08:34:35.733Z,7.70
2019-05-11T08:36:15.247Z,7.64
2019-05-11T08:37:50.418Z,7.73
2019-05-11T08:39:25.885Z,7.65
2019-05-11T08:41:05.106Z,7.69
2019-05-11T08:42:42.842Z,7.80
2019-05-11T08:44:18.236Z,7.87
2019-05-11T08:45:59.647Z,7.90
2019-05-11T08:47:37.739Z,7.93
2019-05-11T08:49:18.783Z,7.98
2019-05-11T08:50:52.638Z,7.98
2019-05-11T08:52:29.065Z,7.97
2019-05-11T08:54:04.611Z,7.94
2019-05-11T08:55:42.637Z,8.00
2019-05-11T08:57:23.843Z,7.86
2019-05-11T08:59:04.721Z,7.86
2019-05-11T09:00:47.687Z,8.00
2019-05-11T09:02:31.045Z,7.98
2019-05-11T09:04:12.522Z,8.02
2019-05-11T09:05:51.459Z,7.96
2019-05-11T09:07:31.670Z,7.95
2019-05-11T09:09:13.207Z,7.86
2019-05-11T09:11:01.501Z,8.01
2019-05-11T09:12:48.794Z,8.01
2019-05-11T09:14:28.393Z,7.78
2019-05-11T09:16:18.643Z,7.84
2019-05-11T09:18:00.237Z,7.96
2019-05-11T09:19:47.934Z,7.89
2019-05-11T09:21:34.172Z,7.89
2019-05-11T09:23:12.918Z,7.76
2019-05-11T09:24:52.004Z,7.65
2019-05-11T09:26:31.474Z,7.72
2019-05-11T09:28:09.476Z,7.56
2019-05-11T09:29:44.846Z,7.58
2019-05-11T09:31:20.214Z,7.77
2019-05-11T09:32:57.550Z,7.69
2019-05-11T09:34:32.857Z,7.80
2019-05-11T09:36:08.765Z,7.68
2019-05-11T09:37:58.701Z,7.64
2019-05-11T09:39:37.792Z,7.59
2019-05-11T09:41:21.620Z,7.77
2019-05-11T09:43:01.970Z,7.81
2019-05-11T09:44:45.021Z,7.66
2019-05-11T09:46:24.816Z,7.76
2019-05-11T09:48:02.210Z,7.68
2019-05-11T09:49:46.422Z,7.82
2019-05-11T09:51:18.398Z,7.80
2019-05-11T09:53:01.405Z,7.83
2019-05-11T09:54:39.769Z,7.86
2019-05-11T09:56:18.769Z,7.95
2019-05-11T09:57:59.610Z,7.91
2019-05-11T09:59:40.258Z,7.99
2019-05-11T10:01:20.983Z,7.93
2019-05-11T10:03:00.127Z,7.94
2019-05-11T10:04:38.191Z,8.04
2019-05-11T10:06:32.111Z,8.11
2019-05-11T10:08:09.016Z,8.16
2019-05-11T10:09:47.844Z,8.06
2019-05-11T10:11:31.887Z,7.99
2019-05-11T10:13:08.219Z,8.02
2019-05-11T10:14:49.702Z,8.02
2019-05-11T10:16:27.889Z,8.09
2019-05-11T10:18:02.655Z,8.23
2019-05-11T10:19:39.581Z,8.29
2019-05-11T10:21:15.271Z,8.19
2019-05-11T10:22:58.108Z,8.04
2019-05-11T10:24:38.336Z,8.20
2019-05-11T10:26:18.744Z,8.14
2019-05-11T10:27:58.235Z,8.26
2019-05-11T10:29:38.225Z,8.17
2019-05-11T10:31:13.673Z,8.11
2019-05-11T10:32:52.040Z,8.13
2019-05-11T10:34:58.540Z,8.21
2019-05-11T10:36:41.470Z,8.11
2019-05-11T10:38:22.768Z,8.11
2019-05-11T10:40:04.611Z,8.15
2019-05-11T10:41:45.201Z,8.07
2019-05-11T10:43:34.269Z,8.12
2019-05-11T10:45:12.331Z,8.13
2019-05-11T10:47:00.431Z,8.24
2019-05-11T10:48:39.059Z,8.24
2019-05-11T10:50:18.839Z,8.25
2019-05-11T10:51:59.175Z,8.40
2019-05-11T10:53:38.456Z,8.36
2019-05-11T10:55:28.349Z,8.45
2019-05-11T10:57:04.281Z,8.31
2019-05-11T10:58:48.026Z,8.36
2019-05-11T11:00:25.320Z,8.51
2019-05-11T11:02:08.155Z,8.65
2019-05-11T11:04:11.692Z,8.66
2019-05-11T11:05:53.022Z,8.68
2019-05-11T11:07:39.357Z,8.75
2019-05-11T11:09:28.125Z,8.66
2019-05-11T11:10:59.434Z,8.72
2019-05-11T11:12:39.054Z,8.71
2019-05-11T11:14:14.498Z,8.76
2019-05-11T11:15:57.642Z,8.69
2019-05-11T11:17:37.985Z,8.57
2019-05-11T11:19:12.504Z,8.53
2019-05-11T11:20:49.831Z,8.60
2019-05-11T11:22:36.946Z,8.69
2019-05-11T11:24:04.574Z,8.66
2019-05-11T11:25:42.595Z,8.70
2019-05-11T11:27:18.527Z,8.61
2019-05-11T11:28:58.036Z,8.47
2019-05-11T11:30:34.220Z,8.65
2019-05-11T11:32:12.653Z,8.55
2019-05-11T11:33:55.669Z,8.61
2019-05-11T11:35:31.667Z,8.43
2019-05-11T11:37:08.337Z,8.53
2019-05-11T11:38:47.915Z,8.59
2019-05-11T11:40:28.159Z,8.47
2019-05-11T11:42:03.694Z,8.51
2019-05-11T11:43:43.403Z,8.61
2019-05-11T11:45:21.590Z,8.65
2019-05-11T11:46:59.322Z,8.59
2019-05-11T11:48:35.051Z,8.37
2019-05-11T11:50:10.295Z,8.21
2019-05-11T11:51:48.291Z,8.28
2019-05-11T11:53:34.552Z,8.27
2019-05-11T11:55:11.977Z,8.08
2019-05-11T11:56:49.462Z,8.17
2019-05-11T11:58:28.178Z,8.06
2019-05-11T12:00:05.547Z,7.95
2019-05-11T12:01:43.624Z,7.98
2019-05-11T12:03:24.537Z,8.03
2019-05-11T12:04:59.861Z,7.97
2019-05-11T12:06:35.056Z,7.96
2019-05-11T12:08:13.582Z,7.84
2019-05-11T12:09:50.951Z,7.89
2019-05-11T12:11:28.084Z,7.99
2019-05-11T12:13:03.571Z,8.00
2019-05-11T12:14:42.198Z,8.13
2019-05-11T12:16:18.217Z,8.13
2019-05-11T12:17:58.593Z,8.19
2019-05-11T12:19:39.256Z,8.18
2019-05-11T12:21:18.594Z,8.24
2019-05-11T12:23:01.782Z,8.13
2019-05-11T12:24:38.318Z,8.12
2019-05-11T12:26:17.909Z,8.18
2019-05-11T12:27:57.565Z,8.20
2019-05-11T12:29:35.316Z,8.23
2019-05-11T12:31:14.710Z,8.30
2019-05-11T12:32:50.989Z,8.31
2019-05-11T12:34:43.622Z,8.33
2019-05-11T12:36:24.261Z,8.34
2019-05-11T12:38:03.185Z,8.31
2019-05-11T12:39:41.748Z,8.26
2019-05-11T12:41:23.650Z,8.31
2019-05-11T12:43:00.441Z,8.40
2019-05-11T12:44:38.698Z,8.51
2019-05-11T12:46:14.799Z,8.60
2019-05-11T12:47:54.957Z,8.78
2019-05-11T12:49:32.411Z,8.78
2019-05-11T12:51:12.319Z,8.70
2019-05-11T12:52:47.829Z,8.78
2019-05-11T12:54:28.049Z,8.76
2019-05-11T12:56:08.242Z,8.68
2019-05-11T12:57:47.842Z,8.83
2019-05-11T12:59:30.784Z,8.81
2019-05-11T13:01:17.993Z,8.83
2019-05-11T13:02:59.654Z,8.87
2019-05-11T13:04:38.531Z,8.95
2019-05-11T13:06:18.811Z,9.01
2019-05-11T13:07:58.910Z,8.95
2019-05-11T13:09:34.140Z,8.78
2019-05-11T13:11:12.957Z,8.62
2019-05-11T13:12:50.411Z,8.57
2019-05-11T13:14:28.815Z,8.75
2019-05-11T13:16:08.552Z,8.56
2019-05-11T13:17:49.192Z,8.44
2019-05-11T13:19:28.203Z,8.46
2019-05-11T13:21:07.715Z,8.64
2019-05-11T13:22:44.236Z,8.62
2019-05-11T13:24:21.035Z,8.60
2019-05-11T13:25:58.342Z,8.58
2019-05-11T13:27:35.611Z,8.54
2019-05-11T13:29:13.434Z,8.56
2019-05-11T13:30:50.479Z,8.51
2019-05-11T13:32:28.073Z,8.42
2019-05-11T13:34:02.904Z,8.59
2019-05-11T13:35:45.575Z,8.86
2019-05-11T13:37:28.163Z,8.90
2019-05-11T13:39:03.229Z,9.32
2019-05-11T13:40:38.928Z,9.66
2019-05-11T13:42:14.118Z,9.58
2019-05-11T13:43:54.397Z,9.78
2019-05-11T13:45:32.879Z,9.79
2019-05-11T13:47:10.858Z,9.68
2019-05-11T13:48:47.610Z,9.54
2019-05-11T13:50:24.078Z,9.51
2019-05-11T13:51:59.846Z,9.33
2019-05-11T13:53:37.631Z,9.20
2019-05-11T13:55:15.609Z,9.13
2019-05-11T13:56:50.842Z,8.81
2019-05-11T13:58:27.732Z,8.86
2019-05-11T14:00:12.908Z,8.72
2019-05-11T14:01:54.258Z,8.66
2019-05-11T14:03:34.346Z,8.90
2019-05-11T14:05:11.361Z,8.84
2019-05-11T14:06:49.888Z,8.82
2019-05-11T14:08:34.082Z,8.72
2019-05-11T14:10:12.787Z,8.59
2019-05-11T14:11:50.056Z,8.45
2019-05-11T14:13:28.906Z,8.43
2019-05-11T14:15:08.654Z,8.37
2019-05-11T14:16:44.327Z,8.37
2019-05-11T14:18:22.686Z,8.40
2019-05-11T14:20:08.982Z,8.40
2019-05-11T14:21:51.214Z,8.40
2019-05-11T14:23:31.529Z,8.20
2019-05-11T14:25:11.329Z,8.20
2019-05-11T14:26:48.644Z,8.22
2019-05-11T14:28:29.304Z,8.24
2019-05-11T14:30:13.401Z,8.43
2019-05-11T14:31:50.991Z,8.51
2019-05-11T14:33:29.783Z,8.54
2019-05-11T14:35:11.339Z,8.70
2019-05-11T14:36:49.862Z,8.68
2019-05-11T14:38:35.079Z,8.68
2019-05-11T14:40:12.420Z,8.54
2019-05-11T14:41:54.834Z,8.73
2019-05-11T14:43:38.418Z,8.84
2019-05-11T14:45:18.671Z,8.69
2019-05-11T14:47:09.746Z,8.59
2019-05-11T14:48:48.226Z,8.44
2019-05-11T14:50:35.144Z,8.42
2019-05-11T14:52:28.784Z,8.37
2019-05-11T14:54:35.411Z,8.31
2019-05-11T14:56:30.898Z,8.27
2019-05-11T14:58:08.578Z,8.38
2019-05-11T14:59:44.433Z,8.22
2019-05-11T15:01:20.176Z,8.25
2019-05-11T15:02:58.378Z,8.28
2019-05-11T15:04:37.893Z,8.26
2019-05-11T15:06:18.982Z,8.20
2019-05-11T15:08:03.161Z,8.26
2019-05-11T15:09:40.453Z,8.22
2019-05-11T15:11:19.229Z,8.25
2019-05-11T15:12:54.482Z,8.38
2019-05-11T15:14:30.530Z,8.34
2019-05-11T15:16:08.238Z,8.57
2019-05-11T15:20:39.563Z,8.62
2019-05-11T15:22:18.223Z,8.52
2019-05-11T15:23:57.957Z,8.68
2019-05-11T15:25:43.357Z,8.89
2019-05-11T15:27:18.575Z,8.99
2019-05-11T15:28:56.038Z,9.11
2019-05-11T15:30:34.239Z,9.04
2019-05-11T15:32:17.922Z,9.15
2019-05-11T15:33:57.592Z,9.39
2019-05-11T15:35:34.285Z,9.68
2019-05-11T15:37:09.932Z,9.63
2019-05-11T15:38:52.282Z,9.56
2019-05-11T15:40:29.239Z,9.74
2019-05-11T15:43:12.008Z,9.89
2019-05-11T15:44:50.134Z,9.49
2019-05-11T15:46:28.229Z,9.60
2019-05-11T15:48:08.217Z,9.88
2019-05-11T15:49:48.485Z,9.85
2019-05-11T15:51:23.465Z,10.05
2019-05-11T15:53:02.838Z,10.24
2019-05-11T15:54:38.650Z,10.26
2019-05-11T15:56:21.560Z,10.32
2019-05-11T15:58:00.591Z,10.85
2019-05-11T15:59:41.327Z,10.63
2019-05-11T16:01:23.492Z,10.70
2019-05-11T16:03:05.320Z,10.73
2019-05-11T16:04:58.241Z,10.78
2019-05-11T16:06:34.733Z,10.85
2019-05-11T16:08:28.162Z,10.75
2019-05-11T16:10:08.843Z,10.85
2019-05-11T16:11:53.908Z,10.98
2019-05-11T16:13:29.564Z,11.17
2019-05-11T16:15:12.954Z,11.26
2019-05-11T16:16:59.463Z,11.10
2019-05-11T16:18:30.014Z,11.23
2019-05-11T16:20:09.079Z,11.21
2019-05-11T16:21:47.300Z,11.17
2019-05-11T16:23:32.190Z,11.49
2019-05-11T16:25:11.169Z,11.45
2019-05-11T16:26:47.510Z,11.49
2019-05-11T16:28:27.620Z,11.41
2019-05-11T16:30:03.695Z,11.09
2019-05-11T16:31:39.186Z,11.17
2019-05-11T16:33:15.091Z,11.19
2019-05-11T16:34:51.194Z,10.93
2019-05-11T16:36:28.441Z,11.14
2019-05-11T16:38:10.725Z,11.07
2019-05-11T16:39:47.382Z,11.00
2019-05-11T16:41:22.779Z,10.36
2019-05-11T16:42:59.416Z,10.32
2019-05-11T16:44:35.177Z,10.21
2019-05-11T16:46:18.323Z,9.94
2019-05-11T16:47:55.632Z,10.05
2019-05-11T16:49:38.561Z,9.77
2019-05-11T16:51:14.977Z,9.73
2019-05-11T16:52:58.266Z,9.75
2019-05-11T16:54:38.785Z,9.82
2019-05-11T16:56:21.090Z,9.76
2019-05-11T16:58:00.245Z,9.65
2019-05-11T16:59:41.220Z,9.59
2019-05-11T17:01:24.040Z,9.62
2019-05-11T17:02:59.094Z,9.44
2019-05-11T17:04:35.711Z,9.50
2019-05-11T17:06:22.111Z,9.53
2019-05-11T17:07:58.784Z,9.74
2019-05-11T17:09:37.956Z,9.90
2019-05-11T17:11:15.360Z,9.88
2019-05-11T17:13:09.539Z,9.92
2019-05-11T17:15:00.399Z,9.82
2019-05-11T17:16:38.621Z,9.52
2019-05-11T17:18:19.319Z,9.46
2019-05-11T17:20:00.643Z,9.55
2019-05-11T17:21:38.157Z,9.41
2019-05-11T17:23:21.855Z,9.28
2019-05-11T17:25:00.428Z,9.27
2019-05-11T17:26:38.532Z,9.19
2019-05-11T17:28:14.411Z,9.19
2019-05-11T17:29:50.085Z,9.22
2019-05-11T17:31:34.159Z,9.17
2019-05-11T17:33:12.213Z,9.22
2019-05-11T17:35:00.426Z,9.20
2019-05-11T17:36:46.547Z,9.30
2019-05-11T17:38:28.014Z,9.41
2019-05-11T17:40:08.995Z,9.45
2019-05-11T17:41:51.822Z,9.58
2019-05-11T17:43:28.916Z,9.60
2019-05-11T17:45:09.610Z,9.84
2019-05-11T17:46:47.001Z,9.80
2019-05-11T17:48:28.205Z,9.78
2019-05-11T17:50:08.138Z,9.81
2019-05-11T17:51:48.513Z,9.94
2019-05-11T17:53:28.554Z,10.17
2019-05-11T17:55:28.742Z,10.29
2019-05-11T17:57:05.854Z,10.24
2019-05-11T17:58:41.621Z,10.41
2019-05-11T18:00:28.118Z,10.52
2019-05-11T18:02:04.882Z,10.21
2019-05-11T18:03:41.304Z,10.17
2019-05-11T18:05:24.583Z,10.14
2019-05-11T18:07:07.319Z,10.15
2019-05-11T18:08:42.697Z,10.19
2019-05-11T18:10:28.428Z,10.15
2019-05-11T18:12:03.354Z,10.25
2019-05-11T18:13:41.747Z,10.20
2019-05-11T18:15:20.562Z,10.03
2019-05-11T18:16:59.033Z,9.89
2019-05-11T18:18:41.778Z,9.84
2019-05-11T18:20:28.467Z,9.76
2019-05-11T18:22:05.755Z,9.78
2019-05-11T18:23:49.956Z,9.61
2019-05-11T18:25:28.760Z,9.50
2019-05-11T18:27:08.190Z,9.27
2019-05-11T18:28:48.219Z,9.10
2019-05-11T18:30:23.963Z,9.04
2019-05-11T18:31:59.811Z,8.98
2019-05-11T18:33:48.762Z,8.97
2019-05-11T18:35:27.914Z,9.01
2019-05-11T18:37:08.789Z,8.90
2019-05-11T18:38:56.209Z,8.86
2019-05-11T18:40:32.710Z,8.78
2019-05-11T18:42:08.827Z,8.73
2019-05-11T18:43:48.179Z,8.61
2019-05-11T18:45:25.079Z,8.51
2019-05-11T18:47:01.091Z,8.38
2019-05-11T18:48:38.073Z,8.29
2019-05-11T18:50:28.253Z,8.22
2019-05-11T18:51:51.803Z,8.16
2019-05-11T18:53:28.968Z,8.07
2019-05-11T18:55:05.156Z,7.97
2019-05-11T18:56:40.957Z,7.86
2019-05-11T18:58:18.754Z,7.85
2019-05-11T18:59:54.287Z,7.75
2019-05-11T19:01:33.410Z,7.73
2019-05-11T19:03:10.900Z,7.67
2019-05-11T19:04:48.749Z,7.62
2019-05-11T19:06:24.796Z,7.59
2019-05-11T19:08:02.464Z,7.57
2019-05-11T19:09:38.702Z,7.46
2019-05-11T19:11:15.107Z,7.31
2019-05-11T19:12:50.935Z,7.21
2019-05-11T19:14:28.243Z,7.06
2019-05-11T19:16:04.479Z,6.93
2019-05-11T19:17:42.735Z,6.79
2019-05-11T19:19:18.419Z,6.66
2019-05-11T19:20:53.839Z,6.67
2019-05-11T19:22:30.820Z,6.56
2019-05-11T19:24:09.298Z,6.44
2019-05-11T19:25:48.090Z,6.56
2019-05-11T19:27:26.163Z,6.42
2019-05-11T19:29:01.489Z,6.31
2019-05-11T19:30:38.329Z,6.25
2019-05-11T19:32:21.315Z,6.22
2019-05-11T19:33:50.866Z,6.17
2019-05-11T19:35:28.609Z,6.17
2019-05-11T19:37:03.187Z,6.16
2019-05-11T19:38:39.066Z,6.25
2019-05-11T19:40:16.962Z,6.23
2019-05-11T19:41:53.058Z,6.27
2019-05-11T19:43:29.687Z,6.26
2019-05-11T19:45:12.449Z,6.27
2019-05-11T19:46:47.854Z,6.35
2019-05-11T19:48:25.248Z,6.36
2019-05-11T19:50:02.946Z,6.33
2019-05-11T19:52:02.616Z,6.35
2019-05-11T19:53:42.581Z,6.33
2019-05-11T19:55:18.311Z,6.30
2019-05-11T19:56:58.380Z,6.31
2019-05-11T19:58:37.899Z,6.16
2019-05-11T20:00:32.858Z,6.15
2019-05-11T20:02:08.667Z,6.01
2019-05-11T20:03:46.783Z,5.90
2019-05-11T20:05:28.600Z,5.82
2019-05-11T20:07:09.175Z,5.78
2019-05-11T20:08:46.542Z,5.82
2019-05-11T20:10:22.571Z,5.81
2019-05-11T20:12:00.489Z,5.81
2019-05-11T20:13:44.234Z,5.79
2019-05-11T20:15:33.210Z,5.73
2019-05-11T20:17:13.625Z,5.60
2019-05-11T20:18:50.865Z,5.50
2019-05-11T20:20:28.701Z,5.57
2019-05-11T20:22:09.000Z,5.64
2019-05-11T20:23:51.970Z,5.58
2019-05-11T20:25:30.862Z,5.58
2019-05-11T20:29:41.887Z,5.75
2019-05-11T20:31:19.348Z,5.76
2019-05-11T20:33:08.684Z,5.77
2019-05-11T20:34:44.754Z,5.79
2019-05-11T20:36:20.289Z,5.85
2019-05-11T20:38:08.816Z,5.83
2019-05-11T20:39:48.012Z,5.87
2019-05-11T20:41:28.010Z,5.82
2019-05-11T20:43:11.348Z,5.81
2019-05-11T20:44:53.231Z,5.87
2019-05-11T20:46:32.806Z,5.87
2019-05-11T20:48:14.166Z,5.79
2019-05-11T20:49:58.721Z,5.79
2019-05-11T20:51:37.028Z,5.74
2019-05-11T20:53:10.725Z,5.71
2019-05-11T20:54:47.718Z,5.65
2019-05-11T20:56:24.660Z,5.67
2019-05-11T20:58:03.760Z,5.74
2019-05-11T20:59:41.794Z,5.64
2019-05-11T21:01:21.496Z,5.56
2019-05-11T21:03:04.976Z,5.57
2019-05-11T21:04:49.217Z,5.53
2019-05-11T21:06:29.410Z,5.45
2019-05-11T21:08:08.562Z,5.43
2019-05-11T21:10:08.669Z,5.43
2019-05-11T21:11:47.951Z,5.42
2019-05-11T21:13:28.251Z,5.43
2019-05-11T21:15:17.199Z,5.34
2019-05-11T21:16:54.083Z,5.30
2019-05-11T21:18:32.957Z,5.33
2019-05-11T21:20:10.888Z,5.19
2019-05-11T21:21:53.406Z,5.07
2019-05-11T21:23:24.530Z,5.08
2019-05-11T21:25:02.793Z,5.07
2019-05-11T21:29:18.854Z,5.16
2019-05-11T21:30:54.718Z,5.07
2019-05-11T21:32:30.134Z,5.02
2019-05-11T21:34:08.443Z,4.98
2019-05-11T21:36:17.797Z,5.03
2019-05-11T21:37:58.002Z,5.01
2019-05-11T21:39:37.781Z,5.03
2019-05-11T21:41:10.987Z,4.98
2019-05-11T21:42:47.989Z,5.01
2019-05-11T21:44:23.430Z,5.07
2019-05-11T21:46:01.378Z,5.09
2019-05-11T21:47:38.627Z,5.18
2019-05-11T21:49:18.368Z,5.13
2019-05-11T21:50:59.924Z,5.11
2019-05-11T21:52:42.336Z,5.08
2019-05-11T21:54:20.599Z,5.00
2019-05-11T21:56:13.082Z,4.97
2019-05-11T21:57:50.869Z,4.92
2019-05-11T21:59:29.077Z,4.81
2019-05-11T22:01:04.800Z,4.86
2019-05-11T22:02:43.085Z,4.80
2019-05-11T22:04:19.175Z,4.76
2019-05-11T22:05:57.880Z,4.74
2019-05-11T22:07:31.916Z,4.69
2019-05-11T22:09:18.615Z,4.71
2019-05-11T22:10:54.965Z,4.71
2019-05-11T22:12:31.926Z,4.68
2019-05-11T22:14:11.768Z,4.66
2019-05-11T22:16:08.738Z,4.62
2019-05-11T22:17:50.978Z,4.54
2019-05-11T22:19:32.455Z,4.59
2019-05-11T22:21:08.565Z,4.64
2019-05-11T22:22:44.647Z,4.59
2019-05-11T22:24:20.726Z,4.58
2019-05-11T22:25:58.544Z,4.53
2019-05-11T22:27:32.999Z,4.54
2019-05-11T22:29:08.313Z,4.47
2019-05-11T22:30:44.260Z,4.48
2019-05-11T22:32:19.827Z,4.47
2019-05-11T22:34:00.861Z,4.47
2019-05-11T22:35:39.285Z,4.44
2019-05-11T22:37:27.655Z,4.42
2019-05-11T22:39:02.627Z,4.34
2019-05-11T22:40:40.374Z,4.38
2019-05-11T22:42:15.532Z,4.35
2019-05-11T22:43:52.310Z,4.30
2019-05-11T22:45:38.534Z,4.26
2019-05-11T22:47:14.672Z,4.26
2019-05-11T22:48:51.599Z,4.24
2019-05-11T22:50:31.691Z,4.21
2019-05-11T22:52:08.755Z,4.24
2019-05-11T22:53:50.279Z,4.15
2019-05-11T22:55:32.712Z,4.11
2019-05-11T22:57:11.517Z,4.13
2019-05-11T22:58:49.976Z,4.10
2019-05-11T23:00:45.306Z,4.08
2019-05-11T23:02:25.304Z,4.02
2019-05-11T23:04:01.484Z,3.95
2019-05-11T23:05:38.288Z,3.94
2019-05-11T23:07:14.748Z,3.88
2019-05-11T23:08:53.963Z,3.87
2019-05-11T23:10:28.115Z,3.85
2019-05-11T23:12:05.679Z,3.89
2019-05-11T23:13:42.159Z,3.90
2019-05-11T23:15:20.215Z,3.87
2019-05-11T23:16:55.562Z,3.87
2019-05-11T23:18:30.709Z,3.84
2019-05-11T23:20:06.330Z,3.82
2019-05-11T23:21:44.333Z,3.79
2019-05-11T23:23:20.570Z,3.72
2019-05-11T23:24:55.719Z,3.73
2019-05-11T23:26:31.175Z,3.64
2019-05-11T23:28:07.104Z,3.65
2019-05-11T23:29:42.647Z,3.63
2019-05-11T23:31:20.627Z,3.59
2019-05-11T23:32:58.333Z,3.60
2019-05-11T23:34:41.379Z,3.55
2019-05-11T23:36:20.047Z,3.52
2019-05-11T23:38:04.312Z,3.47
2019-05-11T23:39:40.780Z,3.44
2019-05-11T23:41:24.896Z,3.42
2019-05-11T23:43:01.047Z,3.41
2019-05-11T23:44:38.395Z,3.38
2019-05-11T23:46:13.845Z,3.31
2019-05-11T23:47:49.627Z,3.31
2019-05-11T23:49:26.035Z,3.29
2019-05-11T23:51:05.460Z,3.30
2019-05-11T23:52:40.696Z,3.25
2019-05-11T23:54:18.556Z,3.18
2019-05-11T23:55:54.226Z,3.11
2019-05-11T23:57:33.300Z,3.08
2019-05-11T23:59:11.407Z,3.04
